Time;durP1;ratioP1;P1;durP2;ratioP2;P2;SDS_P1;SDS_P2;PMS_P1;PMS_P2;Temp;Humidity;BMP_temperature;BMP_pressure;BME280_temperature;BME280_humidity;BME280_pressure;Samples;Min_cycle;Max_cycle;Signal;HPM_P1;HPM_P2
2022/02/28 00:00:19;;;;;;;10.32;4.00;;;;;;;2.14;52.96;98468.44;1713222;84;20986;-76
2022/02/28 00:02:49;;;;;;;7.20;3.90;;;;;;;2.13;52.92;98466.69;1712960;84;21038;-77
2022/02/28 00:05:16;;;;;;;6.75;3.40;;;;;;;2.10;52.99;98470.15;1713122;84;20998;-77
2022/02/28 00:07:43;;;;;;;6.40;3.42;;;;;;;2.09;52.99;98469.29;1713276;84;21535;-75
2022/02/28 00:10:11;;;;;;;7.42;3.45;;;;;;;2.07;52.63;98470.98;1719033;82;21445;-75
2022/02/28 00:12:38;;;;;;;7.47;3.70;;;;;;;2.04;52.63;98460.93;1730097;82;21034;-76
2022/02/28 00:15:07;;;;;;;8.35;3.15;;;;;;;2.04;52.63;98461.78;1742678;82;20983;-76
2022/02/28 00:17:34;;;;;;;4.83;3.42;;;;;;;2.02;52.70;98460.02;1739665;82;21006;-76
2022/02/28 00:20:03;;;;;;;6.50;3.10;;;;;;;2.03;52.90;98459.19;1721645;81;21000;-76
2022/02/28 00:22:30;;;;;;;5.75;2.98;;;;;;;2.03;52.99;98462.66;1735524;83;21035;-76
2022/02/28 00:24:56;;;;;;;7.37;2.85;;;;;;;2.02;53.16;98458.70;1726201;83;20959;-76
2022/02/28 00:27:23;;;;;;;12.15;3.20;;;;;;;2.01;53.21;98462.19;1690834;84;21016;-76
2022/02/28 00:29:50;;;;;;;4.90;3.20;;;;;;;2.00;53.28;98443.03;1735243;83;20983;-76
2022/02/28 00:32:23;;;;;;;6.00;2.95;;;;;;;2.00;53.57;98450.88;1735166;83;21022;-76
2022/02/28 00:34:52;;;;;;;6.62;2.87;;;;;;;2.01;53.55;98446.50;1711233;83;21057;-76
2022/02/28 00:37:19;;;;;;;5.75;3.00;;;;;;;2.00;53.69;98443.45;1735345;83;20959;-76
2022/02/28 00:39:46;;;;;;;5.12;2.75;;;;;;;1.99;53.73;98430.80;1726978;83;21452;-76
2022/02/28 00:42:13;;;;;;;6.42;3.30;;;;;;;2.00;53.88;98432.98;1735339;83;21006;-76
2022/02/28 00:44:41;;;;;;;6.37;2.62;;;;;;;1.98;53.91;98429.94;1735337;83;21027;-76
2022/02/28 00:47:08;;;;;;;4.37;2.72;;;;;;;1.95;53.84;98424.66;1735145;83;21053;-76
2022/02/28 00:49:35;;;;;;;7.00;2.83;;;;;;;1.95;53.84;98424.66;1735199;83;21429;-76
2022/02/28 00:52:04;;;;;;;5.70;3.00;;;;;;;1.97;53.90;98417.73;1712424;83;20990;-75
2022/02/28 00:54:31;;;;;;;6.05;2.85;;;;;;;1.96;53.92;98415.09;1713820;83;21044;-75
2022/02/28 00:56:58;;;;;;;6.55;3.27;;;;;;;1.97;54.01;98409.00;1706091;84;21007;-75
2022/02/28 00:59:25;;;;;;;6.15;3.10;;;;;;;1.99;54.12;98415.11;1676302;86;21036;-76
2022/02/28 01:01:52;;;;;;;5.75;2.62;;;;;;;1.97;54.10;98420.34;1706218;84;21040;-76
2022/02/28 01:04:19;;;;;;;6.25;2.98;;;;;;;1.97;54.16;98413.81;1689145;84;21029;-76
2022/02/28 01:06:46;;;;;;;6.35;2.75;;;;;;;1.97;54.08;98404.66;1735289;83;20944;-76
2022/02/28 01:09:13;;;;;;;4.58;2.50;;;;;;;1.98;54.15;98417.28;1704296;84;21103;-76
2022/02/28 01:11:40;;;;;;;5.85;2.72;;;;;;;1.98;54.12;98407.71;1735245;83;21344;-76
2022/02/28 01:14:08;;;;;;;6.17;3.10;;;;;;;1.99;54.29;98399.42;1705960;84;21023;-76
2022/02/28 01:16:36;;;;;;;5.17;2.85;;;;;;;1.96;54.44;98400.27;1735321;83;21030;-76
2022/02/28 01:19:03;;;;;;;6.25;2.35;;;;;;;1.91;54.32;98398.48;1728597;82;21024;-76
2022/02/28 01:21:30;;;;;;;6.50;3.08;;;;;;;1.91;54.41;98394.11;1697407;84;21040;-76
2022/02/28 01:23:57;;;;;;;4.33;2.85;;;;;;;1.84;54.82;98390.98;1725233;83;21016;-76
2022/02/28 01:26:24;;;;;;;4.70;2.40;;;;;;;1.81;54.63;98393.55;1696336;85;21448;-76
2022/02/28 01:28:50;;;;;;;5.25;2.37;;;;;;;1.74;55.22;98386.06;1697591;84;21080;-76
2022/02/28 01:31:17;;;;;;;6.62;2.80;;;;;;;1.66;55.33;98389.03;1725395;83;21051;-76
2022/02/28 01:33:43;;;;;;;6.53;2.58;;;;;;;1.59;55.31;98388.08;1719656;82;21440;-76
2022/02/28 01:36:10;;;;;;;5.40;2.85;;;;;;;1.54;55.80;98389.75;1738768;82;21022;-76
2022/02/28 01:38:37;;;;;;;5.60;3.00;;;;;;;1.48;56.15;98381.81;1739948;82;21582;-76
2022/02/28 01:41:03;;;;;;;5.67;2.83;;;;;;;1.44;56.45;98385.70;1732527;83;20991;-76
2022/02/28 01:43:30;;;;;;;6.95;3.37;;;;;;;1.40;57.37;98388.23;1739369;82;21292;-76
2022/02/28 01:45:58;;;;;;;5.25;2.60;;;;;;;1.35;57.98;98388.19;1721357;81;21023;-78
2022/02/28 01:48:29;;;;;;;5.53;3.10;;;;;;;1.32;58.20;98378.99;1737287;81;21565;-81
2022/02/28 01:50:59;;;;;;;9.00;3.30;;;;;;;1.29;58.47;98379.83;1722882;83;21072;-83
2022/02/28 01:53:26;;;;;;;5.72;2.87;;;;;;;1.28;57.84;98385.02;1712519;84;21039;-82
2022/02/28 01:55:52;;;;;;;7.42;3.00;;;;;;;1.27;57.77;98385.47;1710374;82;21049;-78
2022/02/28 01:58:19;;;;;;;5.08;2.90;;;;;;;1.27;58.19;98387.20;1730480;83;20991;-82
2022/02/28 02:00:46;;;;;;;12.33;3.50;;;;;;;1.28;58.83;98386.33;1739849;82;21013;-85
2022/02/28 02:03:12;;;;;;;5.67;3.10;;;;;;;1.32;59.90;98378.99;1739731;82;21002;-81
2022/02/28 02:05:39;;;;;;;6.10;3.30;;;;;;;1.34;60.72;98385.13;1732148;83;20957;-80
2022/02/28 02:08:08;;;;;;;6.42;2.87;;;;;;;1.29;60.86;98383.75;1732538;83;21087;-80
2022/02/28 02:10:36;;;;;;;7.42;3.72;;;;;;;1.27;60.25;98381.56;1732410;83;21031;-78
2022/02/28 02:13:03;;;;;;;6.80;3.10;;;;;;;1.23;61.01;98370.61;1732448;83;20988;-76
2022/02/28 02:15:30;;;;;;;6.60;3.42;;;;;;;1.21;60.31;98373.64;1732171;83;21367;-76
2022/02/28 02:17:59;;;;;;;6.58;3.40;;;;;;;1.17;59.77;98380.53;1729602;83;20997;-77
2022/02/28 02:20:34;;;;;;;6.37;3.20;;;;;;;1.18;60.04;98378.81;1714663;82;21045;-76
2022/02/28 02:23:09;;;;;;;6.85;3.27;;;;;;;1.15;60.49;98380.95;1713337;83;21010;-76
2022/02/28 02:25:38;;;;;;;5.22;2.95;;;;;;;1.15;60.23;98380.06;1709661;84;21536;-76
2022/02/28 02:28:08;;;;;;;8.23;3.52;;;;;;;1.16;59.84;98381.39;1742570;82;20990;-76
2022/02/28 02:30:35;;;;;;;6.90;3.27;;;;;;;1.16;61.79;98380.09;1734787;83;21496;-76
2022/02/28 02:33:04;;;;;;;5.08;2.70;;;;;;;1.15;60.28;98378.34;1734119;83;20963;-76
2022/02/28 02:35:31;;;;;;;5.60;2.98;;;;;;;1.20;60.13;98378.84;1735004;83;21472;-76
2022/02/28 02:37:58;;;;;;;5.10;2.95;;;;;;;1.22;59.99;98371.48;1734831;83;21011;-76
2022/02/28 02:40:26;;;;;;;7.70;3.35;;;;;;;1.20;61.25;98370.56;1739631;82;21017;-76
2022/02/28 02:42:53;;;;;;;6.28;3.40;;;;;;;1.18;60.80;98367.95;1707004;81;20969;-76
2022/02/28 02:45:20;;;;;;;4.45;3.20;;;;;;;1.14;61.83;98362.23;1703331;84;21088;-76
2022/02/28 02:47:48;;;;;;;7.85;3.50;;;;;;;1.12;61.54;98372.20;1703945;83;21019;-76
2022/02/28 02:50:16;;;;;;;7.55;3.58;;;;;;;1.08;62.71;98367.79;1680849;84;21088;-76
2022/02/28 02:52:43;;;;;;;6.20;3.15;;;;;;;1.02;62.94;98373.78;1703225;84;21065;-76
2022/02/28 02:55:13;;;;;;;8.23;3.47;;;;;;;1.01;61.69;98370.31;1710466;84;20988;-76
2022/02/28 02:57:41;;;;;;;5.65;3.10;;;;;;;0.98;62.98;98363.73;1703444;84;21500;-76
2022/02/28 03:00:11;;;;;;;7.58;3.27;;;;;;;0.99;61.63;98369.84;1713093;84;21003;-76
2022/02/28 03:02:39;;;;;;;7.08;3.65;;;;;;;0.97;61.36;98365.91;1713557;82;20999;-76
2022/02/28 03:05:08;;;;;;;9.75;3.90;;;;;;;1.01;61.51;98362.91;1713292;84;21062;-76
2022/02/28 03:07:34;;;;;;;8.25;3.60;;;;;;;1.02;61.42;98364.65;1713041;84;20987;-76
2022/02/28 03:10:02;;;;;;;7.47;3.40;;;;;;;1.04;61.44;98358.59;1713199;84;21019;-76
2022/02/28 03:12:29;;;;;;;8.05;3.27;;;;;;;1.10;61.65;98356.52;1713253;84;20983;-76
2022/02/28 03:14:56;;;;;;;9.38;3.77;;;;;;;1.08;61.31;98350.82;1713073;84;21030;-76
2022/02/28 03:17:22;;;;;;;4.90;3.50;;;;;;;1.07;61.40;98360.38;1734550;82;20986;-76
2022/02/28 03:19:49;;;;;;;5.53;3.72;;;;;;;1.10;61.39;98351.30;1707531;84;21437;-76
2022/02/28 03:22:17;;;;;;;6.72;3.72;;;;;;;1.08;61.32;98355.59;1701947;84;21464;-76
2022/02/28 03:24:45;;;;;;;9.58;3.62;;;;;;;1.07;61.51;98360.38;1702025;84;21004;-76
2022/02/28 03:27:12;;;;;;;6.87;3.77;;;;;;;1.04;62.45;98361.20;1701802;84;20987;-76
2022/02/28 03:29:40;;;;;;;8.25;4.45;;;;;;;0.99;62.94;98354.19;1702002;84;21040;-76
2022/02/28 03:32:07;;;;;;;7.83;3.80;;;;;;;0.95;62.58;98349.33;1730213;83;20987;-76
2022/02/28 03:34:34;;;;;;;6.92;3.47;;;;;;;0.91;62.13;98352.33;1730461;83;20967;-76
2022/02/28 03:37:01;;;;;;;10.20;4.22;;;;;;;0.87;62.04;98354.87;1704644;84;21031;-76
2022/02/28 03:39:30;;;;;;;7.53;3.55;;;;;;;0.85;62.25;98362.68;1730445;83;21007;-77
2022/02/28 03:41:57;;;;;;;8.43;3.72;;;;;;;0.86;62.41;98360.52;1730339;83;20998;-76
2022/02/28 03:44:25;;;;;;;5.85;3.60;;;;;;;0.78;62.34;98363.00;1679139;84;21003;-77
2022/02/28 03:46:54;;;;;;;8.45;4.08;;;;;;;0.73;62.67;98361.17;1702348;83;21445;-77
2022/02/28 03:49:26;;;;;;;9.88;3.65;;;;;;;0.70;62.69;98361.14;1676119;86;21079;-76
2022/02/28 03:51:58;;;;;;;9.73;4.10;;;;;;;0.64;63.05;98360.19;1699499;84;21441;-76
2022/02/28 03:54:26;;;;;;;10.50;5.10;;;;;;;0.60;62.75;98354.47;1674750;86;21031;-76
2022/02/28 03:56:52;;;;;;;11.60;5.87;;;;;;;0.55;62.82;98353.52;1701276;84;21015;-76
2022/02/28 03:59:19;;;;;;;10.65;5.22;;;;;;;0.53;62.95;98359.11;1691819;84;20981;-76
2022/02/28 04:01:46;;;;;;;13.22;4.78;;;;;;;0.55;63.25;98353.52;1712572;83;21444;-76
2022/02/28 04:04:16;;;;;;;9.95;5.00;;;;;;;0.60;63.18;98353.16;1674872;86;21023;-76
2022/02/28 04:06:46;;;;;;;11.95;5.65;;;;;;;0.60;63.03;98352.27;1725205;83;20996;-76
2022/02/28 04:09:14;;;;;;;12.30;5.47;;;;;;;0.56;62.89;98349.16;1730579;83;20962;-76
2022/02/28 04:11:42;;;;;;;9.40;5.47;;;;;;;0.54;62.92;98344.36;1704692;84;20997;-76
2022/02/28 04:14:09;;;;;;;10.78;5.15;;;;;;;0.49;63.21;98352.08;1706821;83;21012;-76
2022/02/28 04:16:36;;;;;;;17.98;5.92;;;;;;;0.44;63.07;98346.80;1676374;86;21108;-76
2022/02/28 04:19:17;;;;;;;13.03;5.78;;;;;;;0.46;63.15;98362.48;1669781;84;20976;-74
2022/02/28 04:21:47;;;;;;;13.35;5.95;;;;;;;0.42;63.15;98365.89;1682751;85;21110;-75
2022/02/28 04:24:13;;;;;;;13.68;6.08;;;;;;;0.39;63.17;98365.00;1706181;84;21413;-75
2022/02/28 04:26:40;;;;;;;13.98;6.30;;;;;;;0.39;63.13;98358.89;1706270;84;20996;-75
2022/02/28 04:29:09;;;;;;;20.20;6.47;;;;;;;0.36;63.10;98362.73;1704254;84;21020;-77
2022/02/28 04:31:35;;;;;;;15.88;6.53;;;;;;;0.34;63.25;98364.01;1735394;83;21105;-77
2022/02/28 04:34:02;;;;;;;15.88;6.90;;;;;;;0.29;63.80;98370.87;1735441;83;21018;-75
2022/02/28 04:36:29;;;;;;;13.85;7.10;;;;;;;0.26;63.65;98370.84;1735464;83;21038;-75
2022/02/28 04:38:59;;;;;;;20.97;7.40;;;;;;;0.23;63.67;98375.98;1735284;83;21413;-75
2022/02/28 04:41:27;;;;;;;14.18;7.12;;;;;;;0.19;64.05;98372.87;1730343;83;20969;-77
2022/02/28 04:43:54;;;;;;;16.17;7.60;;;;;;;0.17;63.96;98378.48;1705915;84;20979;-75
2022/02/28 04:46:22;;;;;;;18.82;8.00;;;;;;;0.14;64.12;98380.61;1676698;84;21412;-76
2022/02/28 04:48:48;;;;;;;12.78;7.15;;;;;;;0.18;64.12;98380.23;1706112;84;20995;-76
2022/02/28 04:51:17;;;;;;;19.42;7.87;;;;;;;0.17;64.41;98379.34;1714192;83;21004;-76
2022/02/28 04:53:43;;;;;;;14.03;8.10;;;;;;;0.20;64.01;98388.54;1723577;83;20997;-76
2022/02/28 04:56:10;;;;;;;16.95;7.58;;;;;;;0.19;64.19;98395.02;1731241;83;21033;-76
2022/02/28 04:58:38;;;;;;;16.67;7.72;;;;;;;0.21;64.28;98397.25;1713742;83;20987;-76
2022/02/28 05:01:07;;;;;;;16.45;8.28;;;;;;;0.24;64.22;98395.98;1675702;86;21031;-77
2022/02/28 05:03:34;;;;;;;25.95;8.18;;;;;;;0.23;64.08;98395.53;1706240;84;21417;-77
2022/02/28 05:06:01;;;;;;;19.10;7.78;;;;;;;0.21;64.11;98399.41;1676162;86;21043;-76
2022/02/28 05:08:28;;;;;;;19.07;8.15;;;;;;;0.20;64.10;98391.59;1706181;84;21011;-76
2022/02/28 05:10:55;;;;;;;21.12;7.83;;;;;;;0.17;64.13;98395.44;1696648;83;21521;-76
2022/02/28 05:13:25;;;;;;;16.02;7.42;;;;;;;0.18;64.10;98400.68;1694522;85;20976;-76
2022/02/28 05:15:53;;;;;;;16.48;7.72;;;;;;;0.19;64.31;98404.15;1694671;84;21405;-76
2022/02/28 05:18:20;;;;;;;19.37;9.00;;;;;;;0.13;64.07;98395.36;1694604;85;21415;-77
2022/02/28 05:20:47;;;;;;;20.02;8.75;;;;;;;0.14;64.16;98401.47;1694532;84;21055;-76
2022/02/28 05:23:13;;;;;;;23.98;7.87;;;;;;;0.14;64.05;98401.47;1709011;83;20988;-76
2022/02/28 05:25:41;;;;;;;20.37;9.50;;;;;;;0.13;63.88;98402.33;1704307;83;20972;-76
2022/02/28 05:28:08;;;;;;;29.92;9.38;;;;;;;0.15;63.88;98401.02;1694589;84;21421;-76
2022/02/28 05:30:35;;;;;;;24.25;9.83;;;;;;;0.16;63.80;98401.06;1676421;86;21004;-75
2022/02/28 05:33:04;;;;;;;20.48;9.25;;;;;;;0.17;63.77;98407.16;1705994;84;21493;-76
2022/02/28 05:35:32;;;;;;;21.50;9.00;;;;;;;0.20;63.72;98415.05;1704130;84;21007;-75
2022/02/28 05:38:10;;;;;;;22.82;10.43;;;;;;;0.20;63.82;98413.75;1704352;84;21424;-75
2022/02/28 05:40:38;;;;;;;23.30;10.00;;;;;;;0.22;63.96;98419.86;1735259;83;21019;-75
2022/02/28 05:43:07;;;;;;;24.15;11.78;;;;;;;0.28;63.89;98411.28;1703920;84;21016;-76
2022/02/28 05:45:37;;;;;;;21.30;11.43;;;;;;;0.31;63.77;98416.13;1730848;83;20937;-77
2022/02/28 05:48:22;;;;;;;17.77;8.40;;;;;;;0.34;63.75;98419.20;1704234;84;21064;-76
2022/02/28 05:50:49;;;;;;;22.35;7.78;;;;;;;0.40;63.55;98421.92;1734435;83;21425;-76
2022/02/28 05:53:15;;;;;;;15.75;7.35;;;;;;;0.43;63.46;98423.70;1735434;83;21002;-77
2022/02/28 05:55:42;;;;;;;24.87;8.13;;;;;;;0.47;63.29;98419.00;1730874;83;20983;-76
2022/02/28 05:58:10;;;;;;;19.30;6.92;;;;;;;0.53;63.05;98424.31;1704346;84;21103;-76
2022/02/28 06:00:37;;;;;;;20.55;7.25;;;;;;;0.57;62.95;98426.13;1733186;83;21464;-77
2022/02/28 06:03:04;;;;;;;14.55;7.22;;;;;;;0.64;62.86;98432.34;1717147;83;21031;-78
2022/02/28 06:05:30;;;;;;;16.93;7.20;;;;;;;0.69;62.53;98434.59;1705786;83;20960;-75
2022/02/28 06:07:57;;;;;;;18.20;8.30;;;;;;;0.73;62.37;98434.22;1709605;83;20963;-75
2022/02/28 06:10:24;;;;;;;23.83;9.75;;;;;;;0.76;62.43;98441.70;1720451;83;21456;-75
2022/02/28 06:12:52;;;;;;;23.00;9.90;;;;;;;0.76;62.20;98434.28;1723162;83;21436;-78
2022/02/28 06:15:19;;;;;;;21.52;9.18;;;;;;;0.77;62.35;98437.34;1685149;84;21104;-75
2022/02/28 06:17:46;;;;;;;19.82;9.05;;;;;;;0.83;62.32;98441.79;1719114;83;21034;-77
2022/02/28 06:20:12;;;;;;;18.48;9.18;;;;;;;0.86;62.05;98445.32;1704695;84;21008;-78
2022/02/28 06:22:39;;;;;;;21.68;9.53;;;;;;;0.89;61.93;98445.80;1739734;82;20992;-77
2022/02/28 06:25:07;;;;;;;23.32;9.83;;;;;;;0.91;62.09;98439.75;1739119;82;21500;-77
2022/02/28 06:27:35;;;;;;;30.43;9.90;;;;;;;0.97;62.01;98438.09;1737330;82;21429;-80
2022/02/28 06:30:03;;;;;;;26.05;8.78;;;;;;;1.00;61.75;98439.45;1736791;82;21032;-76
2022/02/28 06:32:30;;;;;;;24.27;9.38;;;;;;;1.04;61.79;98438.66;1728759;81;20958;-80
2022/02/28 06:34:56;;;;;;;32.93;14.90;;;;;;;1.08;61.41;98444.80;1705420;83;21023;-79
2022/02/28 06:37:24;;;;;;;26.25;9.25;;;;;;;1.11;61.47;98436.99;1667020;82;21043;-81
2022/02/28 06:39:51;;;;;;;21.93;8.30;;;;;;;1.16;61.51;98444.05;1715546;82;21477;-80
2022/02/28 06:42:17;;;;;;;17.87;8.00;;;;;;;1.23;61.20;98445.44;1699683;84;21023;-76
2022/02/28 06:44:44;;;;;;;19.77;8.63;;;;;;;1.28;61.08;98439.86;1698805;84;21060;-76
2022/02/28 06:47:10;;;;;;;21.00;8.53;;;;;;;1.31;61.04;98446.03;1700024;83;21016;-76
2022/02/28 06:49:37;;;;;;;20.40;9.30;;;;;;;1.37;61.14;98442.61;1708212;84;21031;-76
2022/02/28 06:52:05;;;;;;;21.42;8.50;;;;;;;1.43;60.76;98441.42;1704387;84;21086;-76
2022/02/28 06:54:32;;;;;;;23.87;8.43;;;;;;;1.47;60.35;98441.03;1699160;84;21067;-76
2022/02/28 06:56:58;;;;;;;22.22;9.00;;;;;;;1.55;60.25;98454.20;1704420;83;21590;-76
2022/02/28 06:59:26;;;;;;;26.77;8.33;;;;;;;1.59;60.67;98448.16;1729120;83;21032;-76
2022/02/28 07:01:52;;;;;;;17.25;8.30;;;;;;;1.64;60.08;98439.06;1710181;84;21035;-76
2022/02/28 07:04:39;;;;;;;73.15;34.85;;;;;;;1.69;60.12;98449.15;1739476;82;20999;-77
2022/02/28 07:07:06;;;;;;;26.42;12.30;;;;;;;1.77;60.02;98451.45;1732582;83;21011;-77
2022/02/28 07:09:34;;;;;;;22.62;9.90;;;;;;;1.84;59.67;98461.11;1708743;84;21012;-77
2022/02/28 07:12:00;;;;;;;19.77;8.38;;;;;;;1.91;59.04;98463.83;1730255;83;21019;-75
2022/02/28 07:14:27;;;;;;;21.00;8.50;;;;;;;1.97;58.98;98453.02;1740030;82;21013;-75
2022/02/28 07:16:53;;;;;;;18.42;7.87;;;;;;;2.02;58.97;98454.78;1739746;82;20998;-75
2022/02/28 07:19:20;;;;;;;14.73;7.15;;;;;;;2.07;58.95;98451.38;1732319;83;21469;-75
2022/02/28 07:21:46;;;;;;;16.30;6.97;;;;;;;2.13;58.67;98454.51;1739441;82;21068;-75
2022/02/28 07:24:13;;;;;;;18.57;8.10;;;;;;;2.23;58.46;98453.75;1730329;83;21413;-75
2022/02/28 07:26:39;;;;;;;19.52;7.53;;;;;;;2.33;58.54;98452.55;1739596;82;20946;-76
2022/02/28 07:29:06;;;;;;;14.13;7.60;;;;;;;2.32;57.71;98462.13;1732503;83;21047;-75
2022/02/28 07:31:33;;;;;;;19.60;7.47;;;;;;;2.29;57.66;98461.22;1738576;82;20987;-75
2022/02/28 07:33:59;;;;;;;16.80;7.42;;;;;;;2.30;57.94;98456.42;1725407;83;21055;-75
2022/02/28 07:36:26;;;;;;;21.20;7.42;;;;;;;2.28;57.42;98456.41;1696418;85;21519;-75
2022/02/28 07:38:56;;;;;;;19.60;7.42;;;;;;;2.27;57.16;98466.84;1697648;84;21072;-78
2022/02/28 07:41:23;;;;;;;12.65;6.35;;;;;;;2.24;57.16;98459.84;1732312;82;21011;-76
2022/02/28 07:43:50;;;;;;;8.88;5.72;;;;;;;2.17;57.41;98467.18;1739942;82;20935;-77
2022/02/28 07:46:16;;;;;;;11.50;5.12;;;;;;;2.11;57.46;98458.41;1732554;83;20975;-77
2022/02/28 07:48:43;;;;;;;8.35;5.15;;;;;;;2.03;56.48;98463.10;1739974;82;21051;-77
2022/02/28 07:51:09;;;;;;;8.40;4.97;;;;;;;1.98;57.00;98466.53;1739876;82;20966;-76
2022/02/28 07:53:36;;;;;;;8.45;4.80;;;;;;;1.99;57.42;98470.00;1722383;83;21074;-76
2022/02/28 07:56:02;;;;;;;8.78;4.97;;;;;;;2.03;57.36;98473.11;1680481;85;21051;-76
2022/02/28 07:58:29;;;;;;;10.48;5.12;;;;;;;2.05;57.08;98467.49;1713336;84;21012;-76
2022/02/28 08:00:55;;;;;;;9.40;5.17;;;;;;;2.05;57.29;98472.72;1713275;84;21011;-77
2022/02/28 08:03:22;;;;;;;9.65;5.70;;;;;;;2.07;57.40;98470.98;1713312;84;21047;-76
2022/02/28 08:05:49;;;;;;;9.85;5.85;;;;;;;2.14;57.45;98482.82;1713343;84;21004;-76
2022/02/28 08:08:16;;;;;;;9.68;5.50;;;;;;;2.13;57.22;98478.45;1711400;84;21031;-76
2022/02/28 08:10:42;;;;;;;9.65;5.22;;;;;;;2.10;57.19;98477.58;1709727;84;20988;-76
2022/02/28 08:13:11;;;;;;;12.33;4.97;;;;;;;2.09;56.83;98484.98;1709716;84;21042;-76
2022/02/28 08:15:39;;;;;;;8.18;5.17;;;;;;;2.16;56.89;98484.59;1709749;84;21066;-76
2022/02/28 08:18:07;;;;;;;9.90;5.10;;;;;;;2.20;57.13;98479.00;1709643;84;21020;-76
2022/02/28 08:20:34;;;;;;;10.40;5.47;;;;;;;2.24;57.35;98480.34;1734343;83;21115;-76
2022/02/28 08:23:03;;;;;;;9.10;5.05;;;;;;;2.34;57.50;98488.30;1709326;83;21030;-76
2022/02/28 08:25:29;;;;;;;7.70;4.72;;;;;;;2.40;58.98;98499.28;1707863;83;21081;-76
2022/02/28 08:27:57;;;;;;;9.70;5.17;;;;;;;2.44;58.36;98496.70;1703804;84;21005;-76
2022/02/28 08:30:24;;;;;;;7.10;3.95;;;;;;;2.50;59.17;98498.52;1703732;84;21032;-76
2022/02/28 08:32:50;;;;;;;6.53;4.08;;;;;;;2.53;58.74;98492.44;1697766;84;21560;-76
2022/02/28 08:35:20;;;;;;;5.40;3.65;;;;;;;2.42;60.20;98485.77;1733189;83;20979;-76
2022/02/28 08:37:47;;;;;;;8.75;4.22;;;;;;;2.47;59.47;98481.47;1704124;84;21033;-76
2022/02/28 08:40:15;;;;;;;6.55;3.60;;;;;;;2.54;59.58;98485.92;1732980;83;21034;-76
2022/02/28 08:42:41;;;;;;;7.45;4.22;;;;;;;2.59;59.43;98483.34;1732901;83;21018;-77
2022/02/28 08:45:09;;;;;;;6.35;3.90;;;;;;;2.61;60.15;98484.22;1701821;84;20950;-77
2022/02/28 08:47:35;;;;;;;6.62;4.20;;;;;;;2.64;59.51;98482.95;1682772;84;21058;-77
2022/02/28 08:50:04;;;;;;;5.95;3.47;;;;;;;2.64;59.46;98479.03;1670104;86;21084;-77
2022/02/28 08:52:32;;;;;;;6.20;3.92;;;;;;;2.64;59.36;98479.92;1703790;84;21006;-77
2022/02/28 08:55:01;;;;;;;4.92;3.40;;;;;;;2.67;59.40;98475.14;1703942;84;20987;-77
2022/02/28 08:57:29;;;;;;;6.17;3.58;;;;;;;2.70;58.89;98479.08;1687706;83;21767;-75
2022/02/28 08:59:56;;;;;;;5.50;3.45;;;;;;;2.72;59.04;98482.61;1732650;83;21072;-75
2022/02/28 09:02:23;;;;;;;7.33;3.40;;;;;;;2.76;58.33;98472.62;1703780;84;21019;-76
2022/02/28 09:04:52;;;;;;;7.55;3.80;;;;;;;2.83;58.57;98463.51;1720429;83;20995;-78
2022/02/28 09:07:18;;;;;;;7.95;4.00;;;;;;;2.93;58.41;98476.23;1708891;84;21032;-76
2022/02/28 09:09:45;;;;;;;4.37;3.33;;;;;;;2.98;58.43;98476.73;1709859;84;20984;-77
2022/02/28 09:12:14;;;;;;;7.60;3.95;;;;;;;3.00;57.61;98478.92;1695927;84;21096;-77
2022/02/28 09:14:41;;;;;;;5.53;3.30;;;;;;;3.09;57.19;98478.56;1681430;85;21273;-77
2022/02/28 09:17:08;;;;;;;5.42;3.40;;;;;;;3.17;56.55;98479.52;1681408;85;21008;-77
2022/02/28 09:19:35;;;;;;;6.20;3.67;;;;;;;3.28;56.33;98483.08;1703697;84;21068;-77
2022/02/28 09:22:01;;;;;;;7.58;3.17;;;;;;;3.43;56.49;98474.47;1703798;84;21017;-77
2022/02/28 09:24:30;;;;;;;3.83;3.10;;;;;;;3.60;54.54;98475.42;1701737;84;21055;-77
2022/02/28 09:26:57;;;;;;;5.78;3.50;;;;;;;3.68;54.53;98485.53;1703225;83;21020;-77
2022/02/28 09:29:24;;;;;;;5.75;3.08;;;;;;;3.74;53.59;98484.70;1676338;86;21051;-76
2022/02/28 09:31:52;;;;;;;8.00;4.33;;;;;;;3.79;52.05;98489.54;1704428;84;21024;-77
2022/02/28 09:34:19;;;;;;;6.08;3.45;;;;;;;3.90;52.75;98477.81;1679165;85;21082;-77
2022/02/28 09:36:51;;;;;;;7.90;3.47;;;;;;;4.00;53.19;98480.02;1684545;85;21047;-77
2022/02/28 09:39:20;;;;;;;4.42;3.20;;;;;;;4.12;51.26;98478.78;1691711;85;21472;-77
2022/02/28 09:41:49;;;;;;;5.92;3.85;;;;;;;4.18;52.09;98476.59;1677781;85;21508;-77
2022/02/28 09:44:34;;;;;;;8.00;3.40;;;;;;;4.21;51.80;98476.20;1705739;84;21075;-79
2022/02/28 09:47:13;;;;;;;5.85;3.70;;;;;;;4.23;51.64;98477.07;1705759;83;21008;-78
2022/02/28 09:49:44;;;;;;;5.97;3.10;;;;;;;4.26;51.40;98474.89;1643904;84;21040;-77
2022/02/28 09:52:15;;;;;;;4.75;3.33;;;;;;;4.30;49.82;98485.84;1688191;84;21047;-78
2022/02/28 09:54:56;;;;;;;6.30;3.37;;;;;;;4.29;50.02;98485.83;1653830;85;21508;-77
2022/02/28 09:57:26;;;;;;;6.78;3.30;;;;;;;4.33;49.29;98488.46;1696181;85;21012;-77
2022/02/28 10:00:05;;;;;;;5.47;3.12;;;;;;;4.27;49.75;98481.88;1696271;84;21040;-77
2022/02/28 10:02:34;;;;;;;9.95;4.78;;;;;;;4.21;49.30;98489.74;1696557;85;21017;-77
2022/02/28 10:05:03;;;;;;;8.50;4.15;;;;;;;4.24;50.03;98488.45;1695334;85;21099;-77
2022/02/28 10:07:48;;;;;;;7.05;3.83;;;;;;;4.25;49.71;98481.44;1687174;85;21025;-77
2022/02/28 10:10:16;;;;;;;5.85;3.87;;;;;;;4.32;50.23;98491.11;1684446;85;21051;-77
2022/02/28 10:12:42;;;;;;;8.13;4.00;;;;;;;4.40;50.42;98482.80;1691633;85;21067;-77
2022/02/28 10:15:15;;;;;;;7.67;4.17;;;;;;;4.52;50.13;98475.86;1654948;87;21027;-77
2022/02/28 10:17:55;;;;;;;7.12;4.22;;;;;;;4.66;50.30;98483.75;1654960;87;21114;-78
2022/02/28 10:20:29;;;;;;;6.33;3.87;;;;;;;4.80;49.30;98482.45;1654842;87;21103;-77
2022/02/28 10:23:00;;;;;;;5.92;3.50;;;;;;;5.02;49.44;98477.68;1664819;85;21107;-77
2022/02/28 10:25:38;;;;;;;5.90;4.00;;;;;;;5.26;49.40;98479.88;1711005;83;21086;-77
2022/02/28 10:28:24;;;;;;;10.93;3.67;;;;;;;5.48;48.56;98479.84;1709311;84;21085;-78
2022/02/28 10:31:11;;;;;;;5.60;3.62;;;;;;;5.66;46.93;98478.94;1709885;84;21508;-77
2022/02/28 10:33:43;;;;;;;6.78;3.52;;;;;;;5.83;46.85;98478.47;1671183;84;21091;-77
2022/02/28 10:36:28;;;;;;;6.12;3.72;;;;;;;5.94;46.02;98469.67;1709589;84;21019;-77
2022/02/28 10:39:00;;;;;;;6.42;3.50;;;;;;;6.06;44.47;98483.69;1734720;82;21024;-77
2022/02/28 10:41:36;;;;;;;5.62;3.50;;;;;;;5.99;44.57;98480.20;1691969;83;21008;-77
2022/02/28 10:44:05;;;;;;;5.95;3.85;;;;;;;6.08;43.20;98485.89;1709177;84;21092;-77
2022/02/28 10:46:36;;;;;;;6.85;3.67;;;;;;;6.06;44.31;98474.48;1742251;82;21034;-77
2022/02/28 10:49:20;;;;;;;6.35;3.58;;;;;;;5.93;43.72;98484.14;1739812;82;20950;-78
2022/02/28 10:52:02;;;;;;;5.78;3.45;;;;;;;5.70;43.73;98485.52;1698981;84;21043;-78
2022/02/28 10:54:44;;;;;;;3.65;2.30;;;;;;;5.40;42.56;98486.43;1679374;84;20975;-77
2022/02/28 10:57:19;;;;;;;3.55;2.42;;;;;;;5.27;41.63;98483.36;1679839;84;21528;-78
2022/02/28 10:59:54;;;;;;;6.58;2.37;;;;;;;5.22;40.62;98479.44;1680547;85;21028;-78
2022/02/28 11:02:27;;;;;;;8.25;4.42;;;;;;;5.70;41.54;98473.26;1703136;84;21015;-78
2022/02/28 11:05:17;;;;;;;2.83;2.10;;;;;;;6.38;40.18;98462.06;1694966;84;21401;-78
2022/02/28 11:07:47;;;;;;;3.75;1.82;;;;;;;6.80;39.89;98471.92;1710612;83;21461;-77
2022/02/28 11:10:17;;;;;;;6.53;2.00;;;;;;;6.75;36.98;98468.45;1709617;84;21079;-77
2022/02/28 11:12:46;;;;;;;3.25;2.00;;;;;;;6.62;37.29;98465.45;1709733;84;21036;-78
2022/02/28 11:15:18;;;;;;;3.77;2.70;;;;;;;6.53;38.54;98466.39;1709754;84;21037;-78
2022/02/28 11:17:48;;;;;;;4.92;2.65;;;;;;;6.30;38.50;98472.63;1739681;82;21004;-78
2022/02/28 11:20:18;;;;;;;3.27;2.20;;;;;;;6.06;39.81;98476.69;1742742;82;21055;-78
2022/02/28 11:22:49;;;;;;;3.50;2.00;;;;;;;5.86;38.98;98469.27;1742508;82;21003;-77
2022/02/28 11:25:20;;;;;;;3.40;1.98;;;;;;;5.72;39.33;98477.20;1737684;82;21051;-76
2022/02/28 11:27:49;;;;;;;4.83;2.02;;;;;;;5.40;37.36;98473.28;1730759;83;21039;-77
2022/02/28 11:30:23;;;;;;;2.83;2.02;;;;;;;5.24;38.59;98476.81;1730916;83;21054;-79
2022/02/28 11:33:13;;;;;;;2.70;1.90;;;;;;;5.31;40.22;98472.44;1726308;83;21474;-77
2022/02/28 11:35:55;;;;;;;4.28;2.10;;;;;;;5.65;38.56;98477.66;1701711;84;21046;-77
2022/02/28 11:38:28;;;;;;;5.12;1.92;;;;;;;5.71;37.96;98478.95;1683173;85;21087;-77
2022/02/28 11:41:04;;;;;;;3.58;2.10;;;;;;;5.86;39.20;98470.13;1703805;84;21015;-78
2022/02/28 11:43:47;;;;;;;3.27;2.37;;;;;;;5.93;38.20;98470.98;1703415;84;21037;-77
2022/02/28 11:46:21;;;;;;;6.47;2.22;;;;;;;5.93;39.47;98474.50;1677361;84;21073;-78